Diablo, Washington
Current Conditions -  °F | °C
As of 9:55 PM on Thursday 27 Nov 2014 (Local Time) from KAWO Reporting Station
Overcast Overcast  
Wind Chill: 55°   Ceiling: 2100
Heat Index: 55°   Visibility: 10mi
Dew Point: 46°   Wind: 24mph
Humidity: 72%   Direction: 180°S
Pressure: 29.66"   Gusts: 33mph
Location:  48.571°N, 121.561°W
Report Text: KAWO 280555Z AUTO 18021G29KT 10SM BKN021 OVC029 13/08 A2966 RMK AO1 10160 20120 57017
Loading
Personal Weather Stations






























Interactive Weather Map New forecast layout! Learn more

10-Day Weather Forecast

Advertisements
Track Severe Weather on mobile